Vaasa Airport, Finland

1:51 AM EEST on July 08, 2015 (GMT +0300)
Hulmi, Laihia | | Change Station
CLOSE
Current Station
Personal Weather Station
Location: Suomi,
Elevation: 33 ft
Nearby Weather Stations

Elev 33 ft 62.99 °N, 21.96 °E | Updated 1 minute ago

Overcast
Overcast
52.2 °F
Feels Like 52.2 °F
N
2.0
Wind Variable Wind from WSW
Gusts 3.0 mph

Today
High -- | Low -- °F
--% Chance of Precip.
Yesterday
High -- | Low -- °F
Precip. -- in
3:44 AM 11:29 PM
Waning Gibbous, 60% visible
Pressure 29.39 in
Visibility 3.7 miles
Clouds Scattered Clouds 200 ft
Overcast 6500 ft
Dew Point 45 °F
Humidity 75%
Rainfall -999.00 in
Snow Depth Not available.
UV 0 out of 12
Pollen Not available.
Air Quality Not available.
Flu Activity Not available.
METAR EFSI 072220Z AUTO 00000KT 6000 SCT002 OVC065 12/12 Q0995

More Conditions Fewer Conditions

Pressure 29.39 in
Visibility 3.7 miles
Clouds Scattered Clouds 200 ft
Overcast 6500 ft
Dew Point 45 °F
Humidity 75%
Rainfall -999.00 in
Snow Depth Not available.
UV 0 out of 12
Pollen Not available.
Air Quality Not available.
Flu Activity Not available.
METAR EFSI 072220Z AUTO 00000KT 6000 SCT002 OVC065 12/12 Q0995

More Conditions Fewer Conditions

10-Day Weather Forecast

×

Almanac

Astronomy

Jul. 08, 2015 Rise Set
Actual Time
Civil Twilight
Nautical Twilight
Astronomical Twilight
Moon
Length of Visible Light
Length of Day
Tomorrow will be .
, % of the Moon is Illuminated

Today's Extremes

Country Highs Country Lows

Community

WunderPhotos

Upload Photos

1,835,941 photos uploaded!

WunderBlogs® & News

Nearby

Air Quality

  Air Quality AQ Index Pollutant
Not available.

Snow Depth

Station Depth Elevation

Earthquake Activity

City Distance Mag. Time & Date
Minimum magnitude displayed is 2.5.

Coastal Water Temperatures

Place Temperature

Stations

Nearby Weather Stations

Station Location Temp. Windchill Dew Point Humidity Wind Precip. Elev Updated Type